Time;durP1;ratioP1;P1;durP2;ratioP2;P2;SDS_P1;SDS_P2;PMS_P1;PMS_P2;Temp;Humidity;BMP_temperature;BMP_pressure;BME280_temperature;BME280_humidity;BME280_pressure;Samples;Min_cycle;Max_cycle;Signal;HPM_P1;HPM_P2
2024/01/18 00:00:13;;;;;;;41.90;20.13;;;;;;;;;;5028799;28;20342;-74
2024/01/18 00:02:39;;;;;;;37.10;19.33;;;;;;;;;;5040714;28;20748;-76
2024/01/18 00:05:06;;;;;;;33.37;18.40;;;;;;;;;;5038924;28;20285;-74
2024/01/18 00:07:31;;;;;;;40.17;18.53;;;;;;;;;;5035946;28;20190;-74
2024/01/18 00:09:57;;;;;;;41.23;19.10;;;;;;;;;;5040220;28;20700;-75
2024/01/18 00:12:22;;;;;;;36.07;19.37;;;;;;;;;;5047499;28;20196;-75
2024/01/18 00:14:48;;;;;;;40.37;19.73;;;;;;;;;;5035049;28;20498;-75
2024/01/18 00:17:13;;;;;;;34.53;19.03;;;;;;;;;;5045217;28;20653;-74
2024/01/18 00:19:38;;;;;;;37.73;19.80;;;;;;;;;;5029874;28;20198;-74
2024/01/18 00:22:04;;;;;;;40.77;20.80;;;;;;;;;;5021206;28;20220;-76
2024/01/18 00:24:29;;;;;;;37.73;19.23;;;;;;;;;;5038044;28;20189;-76
2024/01/18 00:26:55;;;;;;;37.03;19.40;;;;;;;;;;5048315;28;20261;-74
2024/01/18 00:29:20;;;;;;;33.17;18.50;;;;;;;;;;5039336;28;20181;-74
2024/01/18 00:31:45;;;;;;;35.47;18.40;;;;;;;;;;5040951;28;20323;-74
2024/01/18 00:34:11;;;;;;;42.97;19.93;;;;;;;;;;5035189;28;20194;-75
2024/01/18 00:36:36;;;;;;;35.57;18.80;;;;;;;;;;5022199;28;20247;-75
2024/01/18 00:39:08;;;;;;;43.90;21.00;;;;;;;;;;5022166;28;20194;-75
2024/01/18 00:41:36;;;;;;;33.13;18.90;;;;;;;;;;5026142;28;20212;-75
2024/01/18 00:44:01;;;;;;;36.67;18.43;;;;;;;;;;5050237;28;20195;-75
2024/01/18 00:46:26;;;;;;;37.57;19.10;;;;;;;;;;5035940;28;20186;-75
2024/01/18 00:48:52;;;;;;;32.50;18.80;;;;;;;;;;5042145;28;20571;-75
2024/01/18 00:51:17;;;;;;;37.47;19.40;;;;;;;;;;5036252;28;20217;-75
2024/01/18 00:53:43;;;;;;;38.87;20.20;;;;;;;;;;5039849;28;20297;-74
2024/01/18 00:56:10;;;;;;;35.47;19.07;;;;;;;;;;5048540;28;20201;-74
2024/01/18 00:58:36;;;;;;;33.90;19.10;;;;;;;;;;5045326;28;20269;-76
2024/01/18 01:01:02;;;;;;;35.43;18.60;;;;;;;;;;5046863;28;20331;-75
2024/01/18 01:03:28;;;;;;;37.30;19.43;;;;;;;;;;5053027;28;20192;-75
2024/01/18 01:05:53;;;;;;;37.67;19.47;;;;;;;;;;5051435;28;20276;-75
2024/01/18 01:08:19;;;;;;;39.87;20.03;;;;;;;;;;5048790;28;20189;-75
2024/01/18 01:10:44;;;;;;;36.43;19.47;;;;;;;;;;5038483;28;20182;-75
2024/01/18 01:13:10;;;;;;;31.57;18.53;;;;;;;;;;5043719;28;20178;-75
2024/01/18 01:15:35;;;;;;;35.33;19.73;;;;;;;;;;5042052;28;20222;-75
2024/01/18 01:18:01;;;;;;;35.90;19.57;;;;;;;;;;5023727;28;20213;-75
2024/01/18 01:20:26;;;;;;;33.50;19.13;;;;;;;;;;5030482;28;20206;-75
2024/01/18 01:22:51;;;;;;;38.63;20.53;;;;;;;;;;5039287;28;20190;-75
2024/01/18 01:25:17;;;;;;;40.40;20.60;;;;;;;;;;5043292;28;20278;-75
2024/01/18 01:27:42;;;;;;;37.33;19.63;;;;;;;;;;5030221;28;20194;-75
2024/01/18 01:30:10;;;;;;;42.93;21.53;;;;;;;;;;5044599;28;20261;-75
2024/01/18 01:32:35;;;;;;;41.47;20.47;;;;;;;;;;5039523;28;20195;-74
2024/01/18 01:35:01;;;;;;;43.87;19.67;;;;;;;;;;5041946;28;20229;-74
2024/01/18 01:37:26;;;;;;;38.70;19.93;;;;;;;;;;5035222;28;20530;-74
2024/01/18 01:39:52;;;;;;;37.47;18.63;;;;;;;;;;5038079;28;20194;-74
2024/01/18 01:42:18;;;;;;;36.33;19.63;;;;;;;;;;5041010;28;20625;-74
2024/01/18 01:44:44;;;;;;;42.40;20.17;;;;;;;;;;5040716;28;20304;-74
2024/01/18 01:47:09;;;;;;;35.87;19.27;;;;;;;;;;5034900;28;20261;-74
2024/01/18 01:49:35;;;;;;;41.77;21.17;;;;;;;;;;5038042;28;20292;-75
2024/01/18 01:52:01;;;;;;;36.33;19.60;;;;;;;;;;5040414;28;20185;-75
2024/01/18 01:54:29;;;;;;;38.77;19.17;;;;;;;;;;5039003;28;20234;-74
2024/01/18 01:56:57;;;;;;;42.70;19.63;;;;;;;;;;5040419;28;20197;-74
2024/01/18 01:59:23;;;;;;;36.57;20.33;;;;;;;;;;5033177;28;20224;-75
2024/01/18 02:01:50;;;;;;;43.63;20.47;;;;;;;;;;5042777;28;20205;-75
2024/01/18 02:04:16;;;;;;;40.43;20.93;;;;;;;;;;5045758;28;20208;-75
2024/01/18 02:06:43;;;;;;;41.43;20.47;;;;;;;;;;5033889;28;20190;-76
2024/01/18 02:09:10;;;;;;;44.37;19.87;;;;;;;;;;5035922;28;20304;-75
2024/01/18 02:11:36;;;;;;;44.23;20.63;;;;;;;;;;5049057;28;20189;-75
2024/01/18 02:14:03;;;;;;;39.63;19.90;;;;;;;;;;5036962;28;20243;-75
2024/01/18 02:16:29;;;;;;;39.47;19.93;;;;;;;;;;5064568;28;20744;-75
2024/01/18 02:18:54;;;;;;;38.47;19.20;;;;;;;;;;5046952;28;20363;-75
2024/01/18 02:21:20;;;;;;;38.30;20.00;;;;;;;;;;5039984;28;20701;-75
2024/01/18 02:23:48;;;;;;;44.00;19.80;;;;;;;;;;5022943;28;20285;-75
2024/01/18 02:26:14;;;;;;;44.87;20.47;;;;;;;;;;5032269;28;20186;-75
2024/01/18 02:28:58;;;;;;;38.93;19.87;;;;;;;;;;5050181;28;20560;-75
2024/01/18 02:31:24;;;;;;;41.03;20.33;;;;;;;;;;5041858;28;20555;-75
2024/01/18 02:33:50;;;;;;;41.40;20.23;;;;;;;;;;5029812;28;20186;-75
2024/01/18 02:36:17;;;;;;;36.10;19.67;;;;;;;;;;5040086;28;20621;-75
2024/01/18 02:38:43;;;;;;;40.40;19.57;;;;;;;;;;5037405;28;20194;-75
2024/01/18 02:41:09;;;;;;;37.90;18.73;;;;;;;;;;5037194;28;20285;-75
2024/01/18 02:43:34;;;;;;;40.27;19.27;;;;;;;;;;5031881;28;20274;-75
2024/01/18 02:46:00;;;;;;;37.67;17.83;;;;;;;;;;5032094;28;20332;-75
2024/01/18 02:48:25;;;;;;;42.23;19.37;;;;;;;;;;5038207;28;20273;-75
2024/01/18 02:50:51;;;;;;;39.07;19.40;;;;;;;;;;5031350;28;20193;-75
2024/01/18 02:53:20;;;;;;;37.93;18.90;;;;;;;;;;5040616;28;20190;-75
2024/01/18 02:55:45;;;;;;;35.03;17.83;;;;;;;;;;5028070;28;20244;-75
2024/01/18 02:58:10;;;;;;;37.20;19.27;;;;;;;;;;5039156;28;20547;-74
2024/01/18 03:00:38;;;;;;;30.93;17.63;;;;;;;;;;5047877;28;20497;-74
2024/01/18 03:03:04;;;;;;;33.53;18.47;;;;;;;;;;5042964;28;20247;-74
2024/01/18 03:05:29;;;;;;;34.73;18.33;;;;;;;;;;5040160;28;20198;-74
2024/01/18 03:07:54;;;;;;;35.63;16.90;;;;;;;;;;5043997;28;20281;-74
2024/01/18 03:10:22;;;;;;;36.27;17.87;;;;;;;;;;5036591;28;20335;-75
2024/01/18 03:12:47;;;;;;;35.83;18.73;;;;;;;;;;5042748;28;20277;-74
2024/01/18 03:15:13;;;;;;;37.50;17.73;;;;;;;;;;5049673;28;20304;-73
2024/01/18 03:17:38;;;;;;;33.93;17.27;;;;;;;;;;5034638;28;20594;-73
2024/01/18 03:20:07;;;;;;;35.77;17.87;;;;;;;;;;5036371;28;20655;-73
2024/01/18 03:22:34;;;;;;;33.23;18.00;;;;;;;;;;5034701;28;20190;-73
2024/01/18 03:24:59;;;;;;;37.33;18.03;;;;;;;;;;5030014;28;20194;-73
2024/01/18 03:27:25;;;;;;;36.83;17.57;;;;;;;;;;5035325;28;20269;-74
2024/01/18 03:29:50;;;;;;;35.90;17.67;;;;;;;;;;5042927;28;20213;-74
2024/01/18 03:32:16;;;;;;;38.90;18.03;;;;;;;;;;5048133;28;20239;-74
2024/01/18 03:34:41;;;;;;;35.77;17.17;;;;;;;;;;5037374;28;20189;-74
2024/01/18 03:37:06;;;;;;;36.07;18.07;;;;;;;;;;5034771;28;20208;-74
2024/01/18 03:39:36;;;;;;;35.30;18.50;;;;;;;;;;5045663;28;20583;-74
2024/01/18 03:42:01;;;;;;;37.53;20.27;;;;;;;;;;5035162;28;20680;-74
2024/01/18 03:44:27;;;;;;;41.47;19.63;;;;;;;;;;5035521;28;20196;-75
2024/01/18 03:46:52;;;;;;;39.10;18.63;;;;;;;;;;5039394;28;20251;-74
2024/01/18 03:49:19;;;;;;;31.37;17.97;;;;;;;;;;5036264;28;20190;-74
2024/01/18 03:51:44;;;;;;;36.30;18.50;;;;;;;;;;5040782;28;20672;-74
2024/01/18 03:54:10;;;;;;;36.40;18.53;;;;;;;;;;5037376;28;20189;-74
2024/01/18 03:56:35;;;;;;;34.97;18.13;;;;;;;;;;5038604;28;20185;-74
2024/01/18 03:59:01;;;;;;;38.97;19.40;;;;;;;;;;5044036;28;20474;-74
2024/01/18 04:01:31;;;;;;;39.57;18.77;;;;;;;;;;5041227;28;20538;-74
2024/01/18 04:03:57;;;;;;;36.53;18.33;;;;;;;;;;5038342;28;20198;-74
2024/01/18 04:06:22;;;;;;;37.83;19.33;;;;;;;;;;5029188;28;20248;-74
2024/01/18 04:08:47;;;;;;;36.00;16.63;;;;;;;;;;5047030;28;20182;-74
2024/01/18 04:11:13;;;;;;;32.37;17.67;;;;;;;;;;5037844;28;20182;-74
2024/01/18 04:13:38;;;;;;;34.87;18.37;;;;;;;;;;5036957;28;20192;-74
2024/01/18 04:16:04;;;;;;;35.87;18.13;;;;;;;;;;5034581;28;20228;-74
2024/01/18 04:18:30;;;;;;;36.27;18.77;;;;;;;;;;5053358;28;20232;-74
2024/01/18 04:20:55;;;;;;;38.03;18.37;;;;;;;;;;5042662;28;20629;-74
2024/01/18 04:23:21;;;;;;;32.73;17.07;;;;;;;;;;5027921;28;20195;-74
2024/01/18 04:25:51;;;;;;;33.27;17.20;;;;;;;;;;5037655;28;20181;-74
2024/01/18 04:28:21;;;;;;;35.97;19.03;;;;;;;;;;5038395;28;20556;-74
2024/01/18 04:30:46;;;;;;;41.77;19.03;;;;;;;;;;5030353;28;20282;-74
2024/01/18 04:33:12;;;;;;;39.73;18.60;;;;;;;;;;5033098;28;20221;-74
2024/01/18 04:35:38;;;;;;;35.07;18.80;;;;;;;;;;5038810;28;20186;-74
2024/01/18 04:38:03;;;;;;;36.30;18.07;;;;;;;;;;5037118;28;20182;-73
2024/01/18 04:40:29;;;;;;;41.63;20.17;;;;;;;;;;5044279;28;20205;-73
2024/01/18 04:42:54;;;;;;;37.40;18.53;;;;;;;;;;5044773;28;20194;-73
2024/01/18 04:45:20;;;;;;;36.50;18.87;;;;;;;;;;5043973;28;20186;-73
2024/01/18 04:47:46;;;;;;;35.57;19.20;;;;;;;;;;5030713;28;20189;-73
2024/01/18 04:50:11;;;;;;;40.53;19.50;;;;;;;;;;5047013;28;20190;-73
2024/01/18 04:52:37;;;;;;;35.00;17.97;;;;;;;;;;5037847;28;20236;-73
2024/01/18 04:55:04;;;;;;;39.97;18.87;;;;;;;;;;5034548;28;20197;-73
2024/01/18 04:57:35;;;;;;;36.17;17.90;;;;;;;;;;5032587;28;20190;-73
2024/01/18 05:00:01;;;;;;;37.13;18.03;;;;;;;;;;5045808;28;20225;-74
2024/01/18 05:02:26;;;;;;;44.43;18.60;;;;;;;;;;5031441;28;20709;-73
2024/01/18 05:04:52;;;;;;;38.17;18.67;;;;;;;;;;5031884;28;20185;-74
2024/01/18 05:07:18;;;;;;;42.70;18.13;;;;;;;;;;5037223;28;20185;-73
2024/01/18 05:09:43;;;;;;;42.37;19.50;;;;;;;;;;5040896;28;20186;-73
2024/01/18 05:12:09;;;;;;;43.37;22.50;;;;;;;;;;5037910;28;20184;-73
2024/01/18 05:14:34;;;;;;;36.50;19.33;;;;;;;;;;5030665;28;20307;-73
2024/01/18 05:17:10;;;;;;;41.00;18.60;;;;;;;;;;5035873;28;20190;-73
2024/01/18 05:19:35;;;;;;;37.33;18.53;;;;;;;;;;5035592;28;20201;-73
2024/01/18 05:22:01;;;;;;;42.83;18.57;;;;;;;;;;5038075;28;20574;-73
2024/01/18 05:24:26;;;;;;;38.00;18.37;;;;;;;;;;5038348;28;20519;-73
2024/01/18 05:26:52;;;;;;;36.67;18.47;;;;;;;;;;5027285;28;20556;-73
2024/01/18 05:29:17;;;;;;;34.77;18.40;;;;;;;;;;5043462;28;20700;-73
2024/01/18 05:31:43;;;;;;;40.20;18.80;;;;;;;;;;5023436;28;20194;-74
2024/01/18 05:34:08;;;;;;;40.13;18.60;;;;;;;;;;5041984;28;20274;-74
2024/01/18 05:36:36;;;;;;;38.73;17.83;;;;;;;;;;5044829;28;20212;-74
2024/01/18 05:39:03;;;;;;;42.03;18.13;;;;;;;;;;5040376;28;20281;-74
2024/01/18 05:41:28;;;;;;;37.17;18.93;;;;;;;;;;5049118;28;20193;-74
2024/01/18 05:43:53;;;;;;;38.60;18.03;;;;;;;;;;5050381;28;20623;-73
2024/01/18 05:46:19;;;;;;;36.77;18.37;;;;;;;;;;5032244;28;20198;-74
2024/01/18 05:48:44;;;;;;;40.47;18.53;;;;;;;;;;5024541;28;20661;-74
2024/01/18 05:51:10;;;;;;;38.20;21.83;;;;;;;;;;5033858;28;20194;-74
2024/01/18 05:53:35;;;;;;;40.93;17.63;;;;;;;;;;5042773;28;20181;-74
2024/01/18 05:56:01;;;;;;;37.97;17.67;;;;;;;;;;5036513;28;20177;-74
2024/01/18 05:58:29;;;;;;;40.73;16.63;;;;;;;;;;5044238;28;20546;-75
2024/01/18 06:00:54;;;;;;;40.70;18.73;;;;;;;;;;5031846;28;20201;-75
2024/01/18 06:03:20;;;;;;;40.77;18.17;;;;;;;;;;5058478;28;20545;-74
2024/01/18 06:05:45;;;;;;;39.97;18.67;;;;;;;;;;5046695;28;20193;-74
2024/01/18 06:08:11;;;;;;;35.33;17.87;;;;;;;;;;5041395;28;20543;-74
2024/01/18 06:10:36;;;;;;;35.00;17.13;;;;;;;;;;5041026;28;20824;-74
2024/01/18 06:13:02;;;;;;;36.83;18.00;;;;;;;;;;5052711;28;20287;-75
2024/01/18 06:15:27;;;;;;;33.63;17.87;;;;;;;;;;5043682;28;20222;-74
2024/01/18 06:17:52;;;;;;;40.23;18.33;;;;;;;;;;5038825;28;20198;-74
2024/01/18 06:20:18;;;;;;;34.07;17.80;;;;;;;;;;5036403;28;20256;-74
2024/01/18 06:22:43;;;;;;;39.23;17.57;;;;;;;;;;5041713;28;20542;-74
2024/01/18 06:25:09;;;;;;;42.30;17.57;;;;;;;;;;5033357;28;20185;-75
2024/01/18 06:27:35;;;;;;;33.50;17.80;;;;;;;;;;5039078;28;20239;-74
2024/01/18 06:30:01;;;;;;;33.43;16.63;;;;;;;;;;5042149;28;20189;-74
2024/01/18 06:32:26;;;;;;;40.03;17.93;;;;;;;;;;5039852;28;20244;-74
2024/01/18 06:34:51;;;;;;;34.23;17.37;;;;;;;;;;5043873;28;20202;-74
2024/01/18 06:37:17;;;;;;;44.87;18.57;;;;;;;;;;5029112;28;20186;-74
2024/01/18 06:39:42;;;;;;;33.30;17.00;;;;;;;;;;5045297;28;20249;-75
2024/01/18 06:42:08;;;;;;;35.57;18.40;;;;;;;;;;5032188;28;20210;-75
2024/01/18 06:44:34;;;;;;;38.03;18.50;;;;;;;;;;5020060;28;20193;-74
2024/01/18 06:47:00;;;;;;;36.47;17.13;;;;;;;;;;5037730;28;20265;-75
2024/01/18 06:49:26;;;;;;;36.87;18.20;;;;;;;;;;5044775;28;20185;-76
2024/01/18 06:51:52;;;;;;;34.50;17.23;;;;;;;;;;5040481;28;20235;-74
2024/01/18 06:54:21;;;;;;;35.87;17.50;;;;;;;;;;5028011;28;20192;-75
2024/01/18 06:56:47;;;;;;;38.57;18.27;;;;;;;;;;5038221;28;20252;-75
2024/01/18 06:59:14;;;;;;;46.10;19.27;;;;;;;;;;5038476;28;20557;-75
2024/01/18 07:01:40;;;;;;;36.17;18.57;;;;;;;;;;5044840;28;20561;-75
2024/01/18 07:04:06;;;;;;;37.03;17.70;;;;;;;;;;5037467;28;20611;-75
2024/01/18 07:06:31;;;;;;;34.37;18.00;;;;;;;;;;5031490;28;20240;-75
2024/01/18 07:08:57;;;;;;;38.63;18.53;;;;;;;;;;5038881;28;20198;-75
2024/01/18 07:11:22;;;;;;;35.23;18.00;;;;;;;;;;5041195;28;20213;-75
2024/01/18 07:13:48;;;;;;;37.47;19.30;;;;;;;;;;5027337;28;20235;-75
2024/01/18 07:16:13;;;;;;;35.27;17.77;;;;;;;;;;5029587;28;20700;-75
2024/01/18 07:18:39;;;;;;;34.63;18.30;;;;;;;;;;5028117;28;20210;-75
2024/01/18 07:21:04;;;;;;;38.97;19.53;;;;;;;;;;5041338;28;20288;-75
2024/01/18 07:23:30;;;;;;;41.83;22.30;;;;;;;;;;5049353;28;20257;-75
2024/01/18 07:25:55;;;;;;;35.97;17.57;;;;;;;;;;5035664;28;20189;-75
2024/01/18 07:28:21;;;;;;;35.83;18.20;;;;;;;;;;5027915;28;20289;-75
2024/01/18 07:30:47;;;;;;;39.33;17.73;;;;;;;;;;5032556;28;20598;-75
2024/01/18 07:33:12;;;;;;;37.70;18.60;;;;;;;;;;5027567;28;20582;-75
2024/01/18 07:35:38;;;;;;;39.33;18.50;;;;;;;;;;5035859;28;20271;-75
2024/01/18 07:38:04;;;;;;;35.73;17.63;;;;;;;;;;5044866;28;20296;-76
2024/01/18 07:40:29;;;;;;;35.80;17.33;;;;;;;;;;5040190;28;20216;-76
2024/01/18 07:42:55;;;;;;;40.60;17.57;;;;;;;;;;5034884;28;20187;-75
2024/01/18 07:45:20;;;;;;;37.80;16.77;;;;;;;;;;5040806;28;20251;-75
2024/01/18 07:47:46;;;;;;;35.87;16.40;;;;;;;;;;5043921;28;20270;-75
2024/01/18 07:50:12;;;;;;;31.23;14.37;;;;;;;;;;5030110;28;20518;-75
2024/01/18 07:52:38;;;;;;;27.03;15.43;;;;;;;;;;5031869;28;20190;-75
2024/01/18 07:55:06;;;;;;;33.63;15.83;;;;;;;;;;5037005;28;20242;-75
2024/01/18 07:57:31;;;;;;;32.53;14.70;;;;;;;;;;5037977;28;20190;-75
2024/01/18 07:59:57;;;;;;;32.50;15.30;;;;;;;;;;5040033;28;20186;-75
2024/01/18 08:02:22;;;;;;;32.23;14.73;;;;;;;;;;5031892;28;20281;-75
2024/01/18 08:04:47;;;;;;;30.73;16.10;;;;;;;;;;5029159;28;20189;-75
2024/01/18 08:07:13;;;;;;;38.17;16.20;;;;;;;;;;5036105;28;20264;-74
2024/01/18 08:09:38;;;;;;;33.10;16.30;;;;;;;;;;5047309;28;20351;-75
2024/01/18 08:12:05;;;;;;;38.03;14.67;;;;;;;;;;5030211;28;20249;-75
2024/01/18 08:14:30;;;;;;;30.20;15.20;;;;;;;;;;5044913;28;20179;-76
2024/01/18 08:16:56;;;;;;;31.70;15.10;;;;;;;;;;5040214;28;20235;-75
2024/01/18 08:19:21;;;;;;;37.30;14.90;;;;;;;;;;5034308;28;20209;-75
2024/01/18 08:21:47;;;;;;;31.97;15.77;;;;;;;;;;5040485;28;20680;-75
2024/01/18 08:24:12;;;;;;;29.77;14.47;;;;;;;;;;5042790;28;20198;-76
2024/01/18 08:26:38;;;;;;;28.47;14.43;;;;;;;;;;5028886;28;20244;-75
2024/01/18 08:29:03;;;;;;;30.93;14.90;;;;;;;;;;5046462;28;20189;-75
2024/01/18 08:31:29;;;;;;;34.10;13.67;;;;;;;;;;5033384;28;20192;-75
2024/01/18 08:33:55;;;;;;;34.23;15.03;;;;;;;;;;5036451;28;20181;-75
2024/01/18 08:36:20;;;;;;;29.60;14.20;;;;;;;;;;5033641;28;20204;-75
2024/01/18 08:38:46;;;;;;;28.77;14.20;;;;;;;;;;5027434;28;20259;-75
2024/01/18 08:41:11;;;;;;;25.70;12.60;;;;;;;;;;5048409;28;20233;-75
2024/01/18 08:43:36;;;;;;;27.97;13.57;;;;;;;;;;5045473;28;20185;-75
2024/01/18 08:46:06;;;;;;;26.97;13.33;;;;;;;;;;5030872;28;20190;-75
2024/01/18 08:48:32;;;;;;;23.07;12.50;;;;;;;;;;5034915;28;20181;-75
2024/01/18 08:50:58;;;;;;;29.93;13.23;;;;;;;;;;5035626;28;20276;-76
2024/01/18 08:53:23;;;;;;;25.67;12.73;;;;;;;;;;5037767;28;20194;-75
2024/01/18 08:55:48;;;;;;;26.57;12.87;;;;;;;;;;5043275;28;20636;-75
2024/01/18 08:58:14;;;;;;;29.90;12.43;;;;;;;;;;5027625;28;20196;-75
2024/01/18 09:00:39;;;;;;;29.27;13.90;;;;;;;;;;5029514;28;20206;-75
2024/01/18 09:03:05;;;;;;;32.97;13.53;;;;;;;;;;5045068;28;20284;-75
2024/01/18 09:05:30;;;;;;;28.50;14.63;;;;;;;;;;5047464;28;20192;-76
2024/01/18 09:07:57;;;;;;;33.80;14.30;;;;;;;;;;5046819;28;20692;-76
2024/01/18 09:10:22;;;;;;;36.07;16.00;;;;;;;;;;5049888;28;20189;-76
2024/01/18 09:12:48;;;;;;;30.23;15.23;;;;;;;;;;5048363;28;20265;-76
2024/01/18 09:15:14;;;;;;;33.00;15.70;;;;;;;;;;5040717;28;20320;-75
2024/01/18 09:17:41;;;;;;;41.23;18.43;;;;;;;;;;5049120;28;20371;-76
2024/01/18 09:20:07;;;;;;;38.10;18.87;;;;;;;;;;5033005;28;20532;-76
2024/01/18 09:22:32;;;;;;;36.43;19.13;;;;;;;;;;5023760;28;20275;-76
2024/01/18 09:24:58;;;;;;;31.30;17.87;;;;;;;;;;5030223;28;20285;-75
2024/01/18 09:27:24;;;;;;;37.83;18.27;;;;;;;;;;5027515;28;20720;-76
2024/01/18 09:29:49;;;;;;;35.87;17.83;;;;;;;;;;5045392;28;20270;-76
2024/01/18 09:32:18;;;;;;;33.40;17.60;;;;;;;;;;5046690;28;20177;-76
2024/01/18 09:34:43;;;;;;;35.67;17.50;;;;;;;;;;5038179;28;20194;-76
2024/01/18 09:37:08;;;;;;;33.63;17.33;;;;;;;;;;5043594;28;20665;-76
2024/01/18 09:39:34;;;;;;;30.33;15.97;;;;;;;;;;5044930;28;20235;-76
2024/01/18 09:42:03;;;;;;;33.87;17.27;;;;;;;;;;5048311;28;20564;-76
2024/01/18 09:44:32;;;;;;;33.73;17.03;;;;;;;;;;5037648;28;20277;-76
2024/01/18 09:46:58;;;;;;;31.83;17.10;;;;;;;;;;5039146;28;20292;-76
2024/01/18 09:49:25;;;;;;;33.67;16.37;;;;;;;;;;5048768;28;20177;-76
2024/01/18 09:51:51;;;;;;;26.30;14.30;;;;;;;;;;5033277;28;20272;-76
2024/01/18 09:54:17;;;;;;;28.90;15.57;;;;;;;;;;5045480;28;20254;-76
2024/01/18 09:56:45;;;;;;;31.63;15.83;;;;;;;;;;5039356;28;20613;-76
2024/01/18 09:59:15;;;;;;;26.23;14.87;;;;;;;;;;5034235;28;20221;-76
2024/01/18 10:01:41;;;;;;;24.63;13.77;;;;;;;;;;5042069;28;20253;-76
2024/01/18 10:04:10;;;;;;;19.90;11.77;;;;;;;;;;5039866;28;20373;-76
2024/01/18 10:06:38;;;;;;;18.30;10.17;;;;;;;;;;5048554;28;20186;-76
2024/01/18 10:09:05;;;;;;;16.83;9.07;;;;;;;;;;5048047;28;20514;-76
2024/01/18 10:11:31;;;;;;;19.60;9.20;;;;;;;;;;5044483;28;20518;-75
2024/01/18 10:13:57;;;;;;;18.17;8.73;;;;;;;;;;5046787;28;20181;-75
2024/01/18 10:16:32;;;;;;;20.90;9.97;;;;;;;;;;5032605;28;20237;-75
2024/01/18 10:19:01;;;;;;;14.80;8.47;;;;;;;;;;5019071;28;20383;-75
2024/01/18 10:21:27;;;;;;;14.67;8.00;;;;;;;;;;5030418;28;20209;-75
2024/01/18 10:23:54;;;;;;;13.00;8.50;;;;;;;;;;5041948;28;20190;-75
2024/01/18 10:26:28;;;;;;;12.33;7.47;;;;;;;;;;5046164;28;20257;-76
2024/01/18 10:28:53;;;;;;;18.03;7.47;;;;;;;;;;5037711;28;20193;-76
2024/01/18 10:31:19;;;;;;;16.30;7.10;;;;;;;;;;5048145;28;20258;-75
2024/01/18 10:33:47;;;;;;;12.37;6.57;;;;;;;;;;5034741;28;20190;-75
2024/01/18 10:36:13;;;;;;;12.70;7.10;;;;;;;;;;5029432;28;20181;-75
2024/01/18 10:38:40;;;;;;;19.27;7.03;;;;;;;;;;5038978;28;20225;-75
2024/01/18 10:41:07;;;;;;;11.40;6.70;;;;;;;;;;5027242;28;20677;-75
2024/01/18 10:43:34;;;;;;;12.37;6.50;;;;;;;;;;5050113;28;20238;-75
2024/01/18 10:46:01;;;;;;;11.37;5.33;;;;;;;;;;5037129;28;20186;-75
2024/01/18 10:48:27;;;;;;;12.47;6.07;;;;;;;;;;5019480;28;20182;-74
2024/01/18 10:50:56;;;;;;;14.37;6.20;;;;;;;;;;5029850;28;20212;-74
2024/01/18 10:53:36;;;;;;;11.53;5.27;;;;;;;;;;5034104;28;20182;-74
2024/01/18 10:56:02;;;;;;;9.27;4.83;;;;;;;;;;5043001;28;20196;-74
2024/01/18 10:58:29;;;;;;;8.77;4.87;;;;;;;;;;5028099;28;20182;-74
2024/01/18 11:00:56;;;;;;;7.60;4.30;;;;;;;;;;5043828;28;20273;-74
2024/01/18 11:03:22;;;;;;;9.10;3.97;;;;;;;;;;5042484;28;20184;-74
2024/01/18 11:05:48;;;;;;;13.63;4.03;;;;;;;;;;5038337;28;20263;-75
2024/01/18 11:08:14;;;;;;;8.37;3.60;;;;;;;;;;5030715;28;20232;-75
2024/01/18 11:10:42;;;;;;;7.53;3.67;;;;;;;;;;5028031;28;20178;-74
2024/01/18 11:13:08;;;;;;;7.40;3.30;;;;;;;;;;5034222;28;20658;-75
2024/01/18 11:15:36;;;;;;;7.67;2.90;;;;;;;;;;5015614;28;20646;-75
2024/01/18 11:18:09;;;;;;;5.33;2.73;;;;;;;;;;5032424;28;20570;-74
2024/01/18 11:20:54;;;;;;;4.77;2.43;;;;;;;;;;5048089;28;20201;-75
2024/01/18 11:23:25;;;;;;;7.43;2.50;;;;;;;;;;5042840;28;20177;-75
2024/01/18 11:25:50;;;;;;;6.03;2.43;;;;;;;;;;5043093;28;20322;-75
2024/01/18 11:28:28;;;;;;;8.37;1.97;;;;;;;;;;5043528;28;20249;-75
2024/01/18 11:30:53;;;;;;;3.37;2.00;;;;;;;;;;5021720;28;20201;-75
2024/01/18 11:33:22;;;;;;;7.47;2.10;;;;;;;;;;5041417;28;20289;-75
2024/01/18 11:35:48;;;;;;;4.43;2.20;;;;;;;;;;5033041;28;20205;-75
2024/01/18 11:38:23;;;;;;;4.60;1.90;;;;;;;;;;5043271;28;20208;-75
2024/01/18 11:40:56;;;;;;;6.13;2.30;;;;;;;;;;5049558;28;20606;-75
2024/01/18 11:43:23;;;;;;;6.20;2.30;;;;;;;;;;5043879;28;20654;-75
2024/01/18 11:45:50;;;;;;;6.90;2.50;;;;;;;;;;5047394;28;20276;-75
2024/01/18 11:48:16;;;;;;;9.57;2.33;;;;;;;;;;5029326;28;20186;-75
2024/01/18 11:50:41;;;;;;;8.57;2.43;;;;;;;;;;5035833;28;20193;-74
2024/01/18 11:53:09;;;;;;;10.87;1.97;;;;;;;;;;5036846;28;20621;-74
2024/01/18 11:55:41;;;;;;;3.33;2.00;;;;;;;;;;5039812;28;20662;-74
2024/01/18 11:58:08;;;;;;;7.37;2.10;;;;;;;;;;5028302;28;20201;-74
2024/01/18 12:00:33;;;;;;;5.67;2.03;;;;;;;;;;5041000;28;20465;-75
2024/01/18 12:03:03;;;;;;;4.63;1.97;;;;;;;;;;5029878;28;20578;-74
2024/01/18 12:05:28;;;;;;;7.20;2.10;;;;;;;;;;5040647;28;20209;-74
2024/01/18 12:07:55;;;;;;;6.10;2.13;;;;;;;;;;5041800;28;20213;-75
2024/01/18 12:10:20;;;;;;;7.23;2.20;;;;;;;;;;5039901;28;20552;-75
2024/01/18 12:12:46;;;;;;;4.63;1.80;;;;;;;;;;5042356;28;20194;-74
2024/01/18 12:15:18;;;;;;;7.43;1.93;;;;;;;;;;5028109;28;20237;-74
2024/01/18 12:17:44;;;;;;;10.20;1.70;;;;;;;;;;5033223;28;20496;-74
2024/01/18 12:20:14;;;;;;;5.83;1.80;;;;;;;;;;5027348;28;20300;-75
2024/01/18 12:22:40;;;;;;;5.37;1.70;;;;;;;;;;5037823;28;20213;-75
2024/01/18 12:25:06;;;;;;;5.50;1.97;;;;;;;;;;5034656;28;20261;-74
2024/01/18 12:27:32;;;;;;;2.93;1.70;;;;;;;;;;5033434;28;20546;-74
2024/01/18 12:29:57;;;;;;;5.03;1.30;;;;;;;;;;5039586;28;20185;-75
2024/01/18 12:32:23;;;;;;;8.40;1.90;;;;;;;;;;5029973;28;20185;-75
2024/01/18 12:34:48;;;;;;;5.67;1.73;;;;;;;;;;5036907;28;20303;-75
2024/01/18 12:37:14;;;;;;;4.07;1.73;;;;;;;;;;5031320;28;20556;-75
2024/01/18 12:39:40;;;;;;;6.97;2.10;;;;;;;;;;5045281;28;20208;-75
2024/01/18 12:42:05;;;;;;;6.67;1.97;;;;;;;;;;5036771;28;20270;-74
2024/01/18 12:44:31;;;;;;;5.40;1.50;;;;;;;;;;5037664;28;20190;-75
2024/01/18 12:46:58;;;;;;;4.30;1.60;;;;;;;;;;5038302;28;20501;-75
2024/01/18 12:49:25;;;;;;;5.03;1.47;;;;;;;;;;5046214;28;20182;-75
2024/01/18 12:51:55;;;;;;;7.07;1.30;;;;;;;;;;5043318;28;20208;-75
2024/01/18 12:54:22;;;;;;;7.80;1.40;;;;;;;;;;5044060;28;20185;-75
2024/01/18 12:56:57;;;;;;;8.47;1.50;;;;;;;;;;5047992;28;20193;-75
2024/01/18 12:59:24;;;;;;;6.27;1.80;;;;;;;;;;5031561;28;20397;-75
2024/01/18 13:01:51;;;;;;;4.60;1.73;;;;;;;;;;5035983;28;20344;-75
2024/01/18 13:04:24;;;;;;;4.20;1.33;;;;;;;;;;5035884;28;20194;-75
2024/01/18 13:06:57;;;;;;;6.33;1.60;;;;;;;;;;5048466;28;20264;-76
2024/01/18 13:09:26;;;;;;;3.97;1.10;;;;;;;;;;5045946;28;20189;-77
2024/01/18 13:11:57;;;;;;;4.50;1.17;;;;;;;;;;5041719;28;20210;-76
2024/01/18 13:14:23;;;;;;;4.77;1.60;;;;;;;;;;5042699;28;20213;-75
2024/01/18 13:16:50;;;;;;;4.27;0.83;;;;;;;;;;5033053;28;20279;-76
2024/01/18 13:19:19;;;;;;;4.53;1.10;;;;;;;;;;5046055;28;20681;-76
2024/01/18 13:21:44;;;;;;;3.80;0.90;;;;;;;;;;5025057;28;20209;-76
2024/01/18 13:24:11;;;;;;;3.60;0.90;;;;;;;;;;5034736;28;20186;-76
2024/01/18 13:26:37;;;;;;;5.87;1.00;;;;;;;;;;5038234;28;20539;-76
2024/01/18 13:29:04;;;;;;;6.23;1.07;;;;;;;;;;5041121;28;20716;-76
2024/01/18 13:31:30;;;;;;;4.77;0.83;;;;;;;;;;5034394;28;20254;-75
2024/01/18 13:33:56;;;;;;;2.23;0.80;;;;;;;;;;5039168;28;20254;-76
2024/01/18 13:36:21;;;;;;;2.90;0.93;;;;;;;;;;5038663;28;20189;-76
2024/01/18 13:38:47;;;;;;;3.20;0.90;;;;;;;;;;5021068;28;20229;-77
2024/01/18 13:41:12;;;;;;;5.30;0.80;;;;;;;;;;5027682;28;20229;-76
2024/01/18 13:43:38;;;;;;;4.07;1.20;;;;;;;;;;5047888;28;20182;-76
2024/01/18 13:46:04;;;;;;;2.23;1.00;;;;;;;;;;5033684;28;20193;-76
2024/01/18 13:48:31;;;;;;;6.20;1.00;;;;;;;;;;5041826;28;20701;-76
2024/01/18 13:51:00;;;;;;;3.07;1.57;;;;;;;;;;5044551;28;20268;-77
2024/01/18 13:53:25;;;;;;;6.23;1.17;;;;;;;;;;5044967;28;20232;-76
2024/01/18 13:55:52;;;;;;;2.97;1.00;;;;;;;;;;5044900;28;20218;-76
2024/01/18 13:58:18;;;;;;;2.93;1.00;;;;;;;;;;5040490;28;20554;-76
2024/01/18 14:00:43;;;;;;;3.20;0.90;;;;;;;;;;5035730;28;20198;-76
2024/01/18 14:03:10;;;;;;;4.53;1.33;;;;;;;;;;5041265;28;20254;-76
2024/01/18 14:05:38;;;;;;;6.33;1.10;;;;;;;;;;5033022;28;20204;-75
2024/01/18 14:08:05;;;;;;;7.67;1.47;;;;;;;;;;5036283;28;20432;-76
2024/01/18 14:10:32;;;;;;;4.60;1.30;;;;;;;;;;5035499;28;20186;-76
2024/01/18 14:12:58;;;;;;;5.87;1.30;;;;;;;;;;5037660;28;20198;-76
2024/01/18 14:15:24;;;;;;;5.47;1.13;;;;;;;;;;5045985;28;20655;-76
2024/01/18 14:17:50;;;;;;;4.37;1.13;;;;;;;;;;5044226;28;20272;-76